sensor_id;sensor_type;location;lat;lon;timestamp;pressure;altitude;pressure_sealevel;temperature;humidity
58018;BME280;43810;50.860;19.226;2023-04-26T00:00:25;98026.16;;;6.17;65.43
58018;BME280;43810;50.860;19.226;2023-04-26T00:03:11;98030.03;;;6.10;65.22
58018;BME280;43810;50.860;19.226;2023-04-26T00:05:39;98026.00;;;6.04;65.04
58018;BME280;43810;50.860;19.226;2023-04-26T00:08:05;98034.38;;;5.98;65.21
58018;BME280;43810;50.860;19.226;2023-04-26T00:10:31;98030.19;;;5.97;65.35
58018;BME280;43810;50.860;19.226;2023-04-26T00:12:57;98043.53;;;5.92;64.79
58018;BME280;43810;50.860;19.226;2023-04-26T00:15:23;98045.09;;;5.84;65.42
58018;BME280;43810;50.860;19.226;2023-04-26T00:17:49;98048.19;;;5.78;65.93
58018;BME280;43810;50.860;19.226;2023-04-26T00:20:15;98043.50;;;5.74;65.90
58018;BME280;43810;50.860;19.226;2023-04-26T00:22:41;98038.25;;;5.66;66.31
58018;BME280;43810;50.860;19.226;2023-04-26T00:25:07;98040.25;;;5.60;66.55
58018;BME280;43810;50.860;19.226;2023-04-26T00:27:34;98038.84;;;5.54;66.87
58018;BME280;43810;50.860;19.226;2023-04-26T00:30:05;98041.47;;;5.46;67.08
58018;BME280;43810;50.860;19.226;2023-04-26T00:32:33;98042.69;;;5.40;67.21
58018;BME280;43810;50.860;19.226;2023-04-26T00:35:02;98053.81;;;5.28;67.64
58018;BME280;43810;50.860;19.226;2023-04-26T00:37:28;98049.31;;;5.20;67.66
58018;BME280;43810;50.860;19.226;2023-04-26T00:39:54;98048.50;;;5.11;67.79
58018;BME280;43810;50.860;19.226;2023-04-26T00:42:21;98047.41;;;5.03;68.39
58018;BME280;43810;50.860;19.226;2023-04-26T00:44:47;98053.69;;;4.93;68.41
58018;BME280;43810;50.860;19.226;2023-04-26T00:47:15;98054.31;;;4.90;68.62
58018;BME280;43810;50.860;19.226;2023-04-26T00:49:41;98059.69;;;4.85;68.77
58018;BME280;43810;50.860;19.226;2023-04-26T00:52:07;98052.56;;;4.77;69.40
58018;BME280;43810;50.860;19.226;2023-04-26T00:54:33;98055.78;;;4.74;69.65
58018;BME280;43810;50.860;19.226;2023-04-26T00:56:59;98059.94;;;4.67;69.93
58018;BME280;43810;50.860;19.226;2023-04-26T00:59:25;98048.44;;;4.62;69.99
58018;BME280;43810;50.860;19.226;2023-04-26T01:01:51;98052.41;;;4.51;70.55
58018;BME280;43810;50.860;19.226;2023-04-26T01:04:17;98051.44;;;4.47;70.68
58018;BME280;43810;50.860;19.226;2023-04-26T01:06:44;98041.66;;;4.39;71.01
58018;BME280;43810;50.860;19.226;2023-04-26T01:09:10;98043.75;;;4.28;71.44
58018;BME280;43810;50.860;19.226;2023-04-26T01:11:39;98041.56;;;4.22;71.78
58018;BME280;43810;50.860;19.226;2023-04-26T01:14:09;98048.19;;;4.19;72.41
58018;BME280;43810;50.860;19.226;2023-04-26T01:16:36;98049.97;;;4.10;72.60
58018;BME280;43810;50.860;19.226;2023-04-26T01:19:12;98047.66;;;4.09;73.03
58018;BME280;43810;50.860;19.226;2023-04-26T01:21:39;98044.34;;;4.03;73.40
58018;BME280;43810;50.860;19.226;2023-04-26T01:24:08;98053.59;;;4.01;74.18
58018;BME280;43810;50.860;19.226;2023-04-26T01:26:34;98053.13;;;3.99;74.69
58018;BME280;43810;50.860;19.226;2023-04-26T01:29:12;98064.34;;;3.90;75.28
58018;BME280;43810;50.860;19.226;2023-04-26T01:31:38;98066.19;;;3.90;75.74
58018;BME280;43810;50.860;19.226;2023-04-26T01:34:03;98068.03;;;3.89;76.48
58018;BME280;43810;50.860;19.226;2023-04-26T01:36:29;98066.91;;;3.82;76.87
58018;BME280;43810;50.860;19.226;2023-04-26T01:38:55;98063.78;;;3.80;77.38
58018;BME280;43810;50.860;19.226;2023-04-26T01:41:21;98062.22;;;3.79;77.60
58018;BME280;43810;50.860;19.226;2023-04-26T01:43:47;98067.19;;;3.80;77.78
58018;BME280;43810;50.860;19.226;2023-04-26T01:46:13;98060.56;;;3.83;77.87
58018;BME280;43810;50.860;19.226;2023-04-26T01:48:38;98069.16;;;3.75;78.15
58018;BME280;43810;50.860;19.226;2023-04-26T01:51:04;98070.81;;;3.71;78.26
58018;BME280;43810;50.860;19.226;2023-04-26T01:53:30;98065.66;;;3.66;78.52
58018;BME280;43810;50.860;19.226;2023-04-26T01:55:59;98067.84;;;3.64;78.15
58018;BME280;43810;50.860;19.226;2023-04-26T01:58:25;98078.78;;;3.66;78.05
58018;BME280;43810;50.860;19.226;2023-04-26T02:00:51;98077.06;;;3.61;78.10
58018;BME280;43810;50.860;19.226;2023-04-26T02:03:17;98072.41;;;3.58;78.08
58018;BME280;43810;50.860;19.226;2023-04-26T02:05:43;98066.38;;;3.58;78.18
58018;BME280;43810;50.860;19.226;2023-04-26T02:08:09;98080.19;;;3.49;78.07
58018;BME280;43810;50.860;19.226;2023-04-26T02:10:35;98078.84;;;3.52;78.23
58018;BME280;43810;50.860;19.226;2023-04-26T02:13:01;98073.38;;;3.48;78.37
58018;BME280;43810;50.860;19.226;2023-04-26T02:15:27;98063.09;;;3.38;78.40
58018;BME280;43810;50.860;19.226;2023-04-26T02:17:52;98059.19;;;3.36;78.53
58018;BME280;43810;50.860;19.226;2023-04-26T02:20:20;98068.13;;;3.35;78.67
58018;BME280;43810;50.860;19.226;2023-04-26T02:22:46;98067.78;;;3.28;78.64
58018;BME280;43810;50.860;19.226;2023-04-26T02:25:12;98070.41;;;3.28;78.90
58018;BME280;43810;50.860;19.226;2023-04-26T02:27:37;98076.50;;;3.23;78.49
58018;BME280;43810;50.860;19.226;2023-04-26T02:30:04;98078.06;;;3.24;78.73
58018;BME280;43810;50.860;19.226;2023-04-26T02:32:30;98085.56;;;3.17;78.65
58018;BME280;43810;50.860;19.226;2023-04-26T02:34:56;98083.44;;;3.19;78.67
58018;BME280;43810;50.860;19.226;2023-04-26T02:37:21;98076.69;;;3.13;78.60
58018;BME280;43810;50.860;19.226;2023-04-26T02:39:50;98084.88;;;3.11;78.36
58018;BME280;43810;50.860;19.226;2023-04-26T02:42:16;98078.84;;;3.11;78.56
58018;BME280;43810;50.860;19.226;2023-04-26T02:44:42;98078.06;;;3.10;78.67
58018;BME280;43810;50.860;19.226;2023-04-26T02:47:08;98079.91;;;3.10;78.60
58018;BME280;43810;50.860;19.226;2023-04-26T02:49:34;98089.53;;;3.14;78.56
58018;BME280;43810;50.860;19.226;2023-04-26T02:52:00;98088.19;;;3.17;78.60
58018;BME280;43810;50.860;19.226;2023-04-26T02:54:26;98089.25;;;3.16;78.33
58018;BME280;43810;50.860;19.226;2023-04-26T02:56:51;98089.91;;;3.22;78.14
58018;BME280;43810;50.860;19.226;2023-04-26T02:59:17;98085.75;;;3.21;78.29
58018;BME280;43810;50.860;19.226;2023-04-26T03:01:43;98074.47;;;3.20;77.92
58018;BME280;43810;50.860;19.226;2023-04-26T03:04:08;98081.38;;;3.16;78.00
58018;BME280;43810;50.860;19.226;2023-04-26T03:06:34;98085.34;;;3.13;78.30
58018;BME280;43810;50.860;19.226;2023-04-26T03:09:00;98094.09;;;3.09;78.44
58018;BME280;43810;50.860;19.226;2023-04-26T03:11:26;98085.84;;;3.02;78.45
58018;BME280;43810;50.860;19.226;2023-04-26T03:13:52;98086.69;;;2.97;78.83
58018;BME280;43810;50.860;19.226;2023-04-26T03:16:18;98091.28;;;2.92;78.96
58018;BME280;43810;50.860;19.226;2023-04-26T03:18:46;98094.47;;;2.89;78.74
58018;BME280;43810;50.860;19.226;2023-04-26T03:21:11;98084.53;;;2.86;79.29
58018;BME280;43810;50.860;19.226;2023-04-26T03:23:37;98090.28;;;2.88;79.19
58018;BME280;43810;50.860;19.226;2023-04-26T03:26:03;98095.44;;;2.79;79.31
58018;BME280;43810;50.860;19.226;2023-04-26T03:28:29;98088.91;;;2.76;79.42
58018;BME280;43810;50.860;19.226;2023-04-26T03:30:55;98087.06;;;2.77;79.27
58018;BME280;43810;50.860;19.226;2023-04-26T03:33:21;98096.50;;;2.78;79.53
58018;BME280;43810;50.860;19.226;2023-04-26T03:35:47;98101.53;;;2.74;79.57
58018;BME280;43810;50.860;19.226;2023-04-26T03:38:13;98094.94;;;2.77;79.25
58018;BME280;43810;50.860;19.226;2023-04-26T03:40:38;98111.25;;;2.74;79.03
58018;BME280;43810;50.860;19.226;2023-04-26T03:43:05;98108.63;;;2.74;79.27
58018;BME280;43810;50.860;19.226;2023-04-26T03:45:30;98107.94;;;2.68;79.31
58018;BME280;43810;50.860;19.226;2023-04-26T03:47:57;98121.53;;;2.70;79.38
58018;BME280;43810;50.860;19.226;2023-04-26T03:50:22;98113.09;;;2.73;79.33
58018;BME280;43810;50.860;19.226;2023-04-26T03:52:48;98120.75;;;2.70;79.35
58018;BME280;43810;50.860;19.226;2023-04-26T03:55:14;98122.31;;;2.71;79.36
58018;BME280;43810;50.860;19.226;2023-04-26T03:57:40;98118.03;;;2.75;79.26
58018;BME280;43810;50.860;19.226;2023-04-26T04:00:06;98124.28;;;2.79;79.08
58018;BME280;43810;50.860;19.226;2023-04-26T04:02:38;98125.56;;;2.81;78.86
58018;BME280;43810;50.860;19.226;2023-04-26T04:05:04;98137.72;;;2.91;78.63
58018;BME280;43810;50.860;19.226;2023-04-26T04:07:30;98131.50;;;3.01;78.56
58018;BME280;43810;50.860;19.226;2023-04-26T04:09:58;98142.81;;;3.15;77.82
58018;BME280;43810;50.860;19.226;2023-04-26T04:12:24;98148.38;;;3.27;77.48
58018;BME280;43810;50.860;19.226;2023-04-26T04:14:50;98147.69;;;3.35;77.04
58018;BME280;43810;50.860;19.226;2023-04-26T04:17:17;98137.88;;;3.41;76.84
58018;BME280;43810;50.860;19.226;2023-04-26T04:19:43;98147.00;;;3.57;76.11
58018;BME280;43810;50.860;19.226;2023-04-26T04:22:12;98149.44;;;3.67;75.49
58018;BME280;43810;50.860;19.226;2023-04-26T04:24:37;98149.63;;;3.71;75.36
58018;BME280;43810;50.860;19.226;2023-04-26T04:27:04;98157.44;;;3.76;75.54
58018;BME280;43810;50.860;19.226;2023-04-26T04:29:32;98151.47;;;3.84;74.82
58018;BME280;43810;50.860;19.226;2023-04-26T04:31:59;98152.13;;;3.89;75.35
58018;BME280;43810;50.860;19.226;2023-04-26T04:34:25;98148.81;;;3.98;74.54
58018;BME280;43810;50.860;19.226;2023-04-26T04:36:51;98159.22;;;4.03;74.30
58018;BME280;43810;50.860;19.226;2023-04-26T04:39:16;98149.25;;;4.13;74.43
58018;BME280;43810;50.860;19.226;2023-04-26T04:41:43;98165.91;;;4.22;73.64
58018;BME280;43810;50.860;19.226;2023-04-26T04:44:13;98158.06;;;4.09;73.75
58018;BME280;43810;50.860;19.226;2023-04-26T04:46:42;98157.56;;;4.07;73.84
58018;BME280;43810;50.860;19.226;2023-04-26T04:49:08;98162.81;;;4.07;73.82
58018;BME280;43810;50.860;19.226;2023-04-26T04:51:34;98170.69;;;4.20;73.67
58018;BME280;43810;50.860;19.226;2023-04-26T04:54:14;98173.94;;;4.40;73.17
58018;BME280;43810;50.860;19.226;2023-04-26T04:56:40;98156.31;;;4.40;72.76
58018;BME280;43810;50.860;19.226;2023-04-26T04:59:07;98165.31;;;4.48;72.91
58018;BME280;43810;50.860;19.226;2023-04-26T05:01:33;98165.56;;;4.60;72.23
58018;BME280;43810;50.860;19.226;2023-04-26T05:04:00;98172.53;;;4.78;71.63
58018;BME280;43810;50.860;19.226;2023-04-26T05:06:26;98182.81;;;4.88;71.36
58018;BME280;43810;50.860;19.226;2023-04-26T05:08:53;98180.47;;;4.87;70.79
58018;BME280;43810;50.860;19.226;2023-04-26T05:11:19;98192.91;;;4.95;71.45
58018;BME280;43810;50.860;19.226;2023-04-26T05:13:45;98188.25;;;5.14;69.62
58018;BME280;43810;50.860;19.226;2023-04-26T05:16:12;98188.66;;;5.08;69.66
58018;BME280;43810;50.860;19.226;2023-04-26T05:18:37;98199.31;;;5.03;69.87
58018;BME280;43810;50.860;19.226;2023-04-26T05:21:03;98200.25;;;5.07;69.99
58018;BME280;43810;50.860;19.226;2023-04-26T05:23:29;98195.28;;;5.05;70.28
58018;BME280;43810;50.860;19.226;2023-04-26T05:25:56;98209.41;;;5.09;70.33
58018;BME280;43810;50.860;19.226;2023-04-26T05:28:22;98200.97;;;5.21;69.46
58018;BME280;43810;50.860;19.226;2023-04-26T05:30:48;98204.56;;;5.25;69.48
58018;BME280;43810;50.860;19.226;2023-04-26T05:33:14;98214.09;;;5.43;69.32
58018;BME280;43810;50.860;19.226;2023-04-26T05:35:40;98214.44;;;5.50;68.95
58018;BME280;43810;50.860;19.226;2023-04-26T05:38:06;98212.31;;;5.61;67.69
58018;BME280;43810;50.860;19.226;2023-04-26T05:40:32;98206.16;;;5.74;67.70
58018;BME280;43810;50.860;19.226;2023-04-26T05:42:57;98204.16;;;5.71;67.59
58018;BME280;43810;50.860;19.226;2023-04-26T05:45:24;98201.84;;;5.78;67.78
58018;BME280;43810;50.860;19.226;2023-04-26T05:47:50;98207.44;;;5.85;66.93
58018;BME280;43810;50.860;19.226;2023-04-26T05:50:16;98208.69;;;5.96;66.88
58018;BME280;43810;50.860;19.226;2023-04-26T05:52:42;98205.75;;;5.98;66.65
58018;BME280;43810;50.860;19.226;2023-04-26T05:55:08;98207.94;;;5.96;65.80
58018;BME280;43810;50.860;19.226;2023-04-26T05:57:34;98205.91;;;5.84;66.28
58018;BME280;43810;50.860;19.226;2023-04-26T06:00:03;98208.56;;;6.10;66.73
58018;BME280;43810;50.860;19.226;2023-04-26T06:02:29;98210.31;;;6.32;65.48
58018;BME280;43810;50.860;19.226;2023-04-26T06:04:56;98213.28;;;6.47;64.46
58018;BME280;43810;50.860;19.226;2023-04-26T06:07:21;98210.19;;;6.37;64.99
58018;BME280;43810;50.860;19.226;2023-04-26T06:09:47;98213.72;;;6.32;64.04
58018;BME280;43810;50.860;19.226;2023-04-26T06:12:13;98213.28;;;6.39;64.43
58018;BME280;43810;50.860;19.226;2023-04-26T06:14:39;98207.22;;;6.56;65.23
58018;BME280;43810;50.860;19.226;2023-04-26T06:17:05;98208.66;;;6.70;62.75
58018;BME280;43810;50.860;19.226;2023-04-26T06:19:31;98209.72;;;6.78;62.60
58018;BME280;43810;50.860;19.226;2023-04-26T06:21:57;98222.00;;;6.65;62.61
58018;BME280;43810;50.860;19.226;2023-04-26T06:24:23;98216.88;;;6.60;62.83
58018;BME280;43810;50.860;19.226;2023-04-26T06:26:51;98217.34;;;6.54;62.81
58018;BME280;43810;50.860;19.226;2023-04-26T06:29:19;98213.75;;;6.58;64.33
58018;BME280;43810;50.860;19.226;2023-04-26T06:31:45;98218.59;;;6.91;63.85
58018;BME280;43810;50.860;19.226;2023-04-26T06:34:11;98218.75;;;7.11;62.72
58018;BME280;43810;50.860;19.226;2023-04-26T06:36:36;98217.16;;;7.19;62.74
58018;BME280;43810;50.860;19.226;2023-04-26T06:39:03;98217.31;;;7.23;61.02
58018;BME280;43810;50.860;19.226;2023-04-26T06:41:28;98224.59;;;7.26;62.32
58018;BME280;43810;50.860;19.226;2023-04-26T06:43:54;98219.31;;;7.26;60.61
58018;BME280;43810;50.860;19.226;2023-04-26T06:46:20;98210.78;;;7.20;62.03
58018;BME280;43810;50.860;19.226;2023-04-26T06:48:46;98219.88;;;7.48;62.33
58018;BME280;43810;50.860;19.226;2023-04-26T06:51:12;98223.25;;;7.66;61.08
58018;BME280;43810;50.860;19.226;2023-04-26T06:53:38;98223.59;;;7.56;60.19
58018;BME280;43810;50.860;19.226;2023-04-26T06:56:04;98224.03;;;7.67;61.68
58018;BME280;43810;50.860;19.226;2023-04-26T06:58:30;98215.69;;;7.85;60.47
58018;BME280;43810;50.860;19.226;2023-04-26T07:00:56;98222.53;;;7.86;59.20
58018;BME280;43810;50.860;19.226;2023-04-26T07:03:21;98233.81;;;7.66;58.93
58018;BME280;43810;50.860;19.226;2023-04-26T07:05:47;98234.44;;;7.63;60.03
58018;BME280;43810;50.860;19.226;2023-04-26T07:08:13;98226.47;;;7.80;58.94
58018;BME280;43810;50.860;19.226;2023-04-26T07:10:40;98232.19;;;7.82;58.31
58018;BME280;43810;50.860;19.226;2023-04-26T07:13:06;98232.38;;;7.77;58.96
58018;BME280;43810;50.860;19.226;2023-04-26T07:15:32;98242.81;;;7.74;58.11
58018;BME280;43810;50.860;19.226;2023-04-26T07:17:58;98234.72;;;7.70;57.54
58018;BME280;43810;50.860;19.226;2023-04-26T07:20:24;98241.88;;;7.70;58.43
58018;BME280;43810;50.860;19.226;2023-04-26T07:22:50;98239.97;;;7.87;59.17
58018;BME280;43810;50.860;19.226;2023-04-26T07:25:16;98239.63;;;8.18;58.96
58018;BME280;43810;50.860;19.226;2023-04-26T07:27:42;98245.00;;;8.31;57.33
58018;BME280;43810;50.860;19.226;2023-04-26T07:30:08;98257.47;;;8.30;57.79
58018;BME280;43810;50.860;19.226;2023-04-26T07:32:35;98242.47;;;8.13;57.17
58018;BME280;43810;50.860;19.226;2023-04-26T07:35:05;98244.63;;;8.41;58.01
58018;BME280;43810;50.860;19.226;2023-04-26T07:37:39;98255.75;;;8.34;56.26
58018;BME280;43810;50.860;19.226;2023-04-26T07:40:05;98253.44;;;8.03;56.92
58018;BME280;43810;50.860;19.226;2023-04-26T07:42:33;98254.38;;;8.28;57.33
58018;BME280;43810;50.860;19.226;2023-04-26T07:44:58;98256.22;;;8.27;56.98
58018;BME280;43810;50.860;19.226;2023-04-26T07:47:25;98257.22;;;8.23;56.57
58018;BME280;43810;50.860;19.226;2023-04-26T07:49:54;98251.03;;;8.40;55.31
58018;BME280;43810;50.860;19.226;2023-04-26T07:52:20;98259.03;;;8.52;56.23
58018;BME280;43810;50.860;19.226;2023-04-26T07:54:45;98263.72;;;8.76;53.82
58018;BME280;43810;50.860;19.226;2023-04-26T07:57:12;98260.13;;;8.30;53.75
58018;BME280;43810;50.860;19.226;2023-04-26T07:59:38;98257.94;;;8.03;54.90
58018;BME280;43810;50.860;19.226;2023-04-26T08:02:03;98260.19;;;7.83;55.39
58018;BME280;43810;50.860;19.226;2023-04-26T08:04:31;98255.75;;;7.58;56.37
58018;BME280;43810;50.860;19.226;2023-04-26T08:06:59;98281.16;;;7.97;58.77
58018;BME280;43810;50.860;19.226;2023-04-26T08:09:27;98275.22;;;8.00;55.87
58018;BME280;43810;50.860;19.226;2023-04-26T08:11:53;98273.94;;;8.06;56.44
58018;BME280;43810;50.860;19.226;2023-04-26T08:14:19;98281.75;;;8.03;55.28
58018;BME280;43810;50.860;19.226;2023-04-26T08:16:45;98275.44;;;7.86;53.82
58018;BME280;43810;50.860;19.226;2023-04-26T08:19:11;98278.19;;;7.99;57.10
58018;BME280;43810;50.860;19.226;2023-04-26T08:21:37;98278.88;;;8.46;57.19
58018;BME280;43810;50.860;19.226;2023-04-26T08:24:03;98285.22;;;8.53;54.25
58018;BME280;43810;50.860;19.226;2023-04-26T08:26:29;98279.44;;;8.01;53.79
58018;BME280;43810;50.860;19.226;2023-04-26T08:28:55;98283.69;;;7.85;56.82
58018;BME280;43810;50.860;19.226;2023-04-26T08:31:21;98282.53;;;8.33;55.06
58018;BME280;43810;50.860;19.226;2023-04-26T08:33:47;98288.78;;;8.78;52.52
58018;BME280;43810;50.860;19.226;2023-04-26T08:36:13;98291.00;;;9.51;53.30
58018;BME280;43810;50.860;19.226;2023-04-26T08:38:39;98273.66;;;9.65;52.03
58018;BME280;43810;50.860;19.226;2023-04-26T08:41:05;98278.38;;;9.48;51.79
58018;BME280;43810;50.860;19.226;2023-04-26T08:43:35;98283.47;;;8.99;51.05
58018;BME280;43810;50.860;19.226;2023-04-26T08:46:06;98283.38;;;9.49;51.72
58018;BME280;43810;50.860;19.226;2023-04-26T08:48:35;98279.44;;;9.80;49.51
58018;BME280;43810;50.860;19.226;2023-04-26T08:51:02;98284.16;;;8.96;50.55
58018;BME280;43810;50.860;19.226;2023-04-26T08:53:30;98285.59;;;8.85;49.86
58018;BME280;43810;50.860;19.226;2023-04-26T08:55:59;98280.84;;;9.53;49.59
58018;BME280;43810;50.860;19.226;2023-04-26T08:58:27;98283.53;;;9.65;49.82
58018;BME280;43810;50.860;19.226;2023-04-26T09:00:54;98282.81;;;9.23;49.79
58018;BME280;43810;50.860;19.226;2023-04-26T09:03:22;98274.34;;;9.29;50.30
58018;BME280;43810;50.860;19.226;2023-04-26T09:05:48;98276.94;;;9.95;50.06
58018;BME280;43810;50.860;19.226;2023-04-26T09:08:15;98288.09;;;10.37;48.88
58018;BME280;43810;50.860;19.226;2023-04-26T09:10:43;98291.53;;;10.14;47.34
58018;BME280;43810;50.860;19.226;2023-04-26T09:13:08;98279.78;;;10.02;49.01
58018;BME280;43810;50.860;19.226;2023-04-26T09:15:36;98285.00;;;10.23;45.83
58018;BME280;43810;50.860;19.226;2023-04-26T09:18:21;98284.69;;;9.55;44.41
58018;BME280;43810;50.860;19.226;2023-04-26T09:21:01;98274.81;;;9.89;46.28
58018;BME280;43810;50.860;19.226;2023-04-26T09:23:27;98291.09;;;9.99;45.25
58018;BME280;43810;50.860;19.226;2023-04-26T09:25:53;98283.59;;;9.56;47.56
58018;BME280;43810;50.860;19.226;2023-04-26T09:28:22;98286.31;;;9.35;48.18
58018;BME280;43810;50.860;19.226;2023-04-26T09:30:49;98289.19;;;9.22;47.20
58018;BME280;43810;50.860;19.226;2023-04-26T09:33:15;98290.00;;;9.55;49.23
58018;BME280;43810;50.860;19.226;2023-04-26T09:35:42;98281.34;;;10.16;47.01
58018;BME280;43810;50.860;19.226;2023-04-26T09:38:10;98293.03;;;10.75;47.74
58018;BME280;43810;50.860;19.226;2023-04-26T09:43:06;98301.47;;;10.53;43.05
58018;BME280;43810;50.860;19.226;2023-04-26T09:45:48;98277.91;;;9.33;46.40
58018;BME280;43810;50.860;19.226;2023-04-26T09:48:19;98285.06;;;9.33;46.73
58018;BME280;43810;50.860;19.226;2023-04-26T09:50:48;98284.88;;;9.83;45.46
58018;BME280;43810;50.860;19.226;2023-04-26T09:53:48;98286.44;;;9.84;43.61
58018;BME280;43810;50.860;19.226;2023-04-26T09:56:15;98285.06;;;9.66;44.19
58018;BME280;43810;50.860;19.226;2023-04-26T10:01:09;98287.75;;;10.63;43.29
58018;BME280;43810;50.860;19.226;2023-04-26T10:03:39;98287.75;;;11.03;43.44
58018;BME280;43810;50.860;19.226;2023-04-26T10:06:06;98286.66;;;10.92;43.50
58018;BME280;43810;50.860;19.226;2023-04-26T10:08:32;98288.00;;;10.22;43.63
58018;BME280;43810;50.860;19.226;2023-04-26T10:10:59;98273.81;;;10.42;42.69
58018;BME280;43810;50.860;19.226;2023-04-26T10:13:30;98280.50;;;10.88;44.77
58018;BME280;43810;50.860;19.226;2023-04-26T10:15:58;98275.81;;;10.97;42.98
58018;BME280;43810;50.860;19.226;2023-04-26T10:18:24;98284.84;;;11.08;40.58
58018;BME280;43810;50.860;19.226;2023-04-26T10:20:52;98286.66;;;10.40;41.77
58018;BME280;43810;50.860;19.226;2023-04-26T10:23:21;98291.84;;;9.43;44.37
58018;BME280;43810;50.860;19.226;2023-04-26T10:25:50;98297.31;;;8.84;45.35
58018;BME280;43810;50.860;19.226;2023-04-26T10:28:17;98296.41;;;8.59;47.52
58018;BME280;43810;50.860;19.226;2023-04-26T10:30:54;98290.03;;;8.51;47.02
58018;BME280;43810;50.860;19.226;2023-04-26T10:33:21;98301.28;;;8.48;47.72
58018;BME280;43810;50.860;19.226;2023-04-26T10:36:00;98300.97;;;8.50;48.54
58018;BME280;43810;50.860;19.226;2023-04-26T10:38:26;98312.78;;;8.23;48.59
58018;BME280;43810;50.860;19.226;2023-04-26T10:40:52;98320.66;;;8.02;50.25
58018;BME280;43810;50.860;19.226;2023-04-26T10:45:45;98316.19;;;7.85;50.24
58018;BME280;43810;50.860;19.226;2023-04-26T10:48:14;98299.50;;;8.02;47.37
58018;BME280;43810;50.860;19.226;2023-04-26T10:59:18;98297.91;;;9.76;45.60
58018;BME280;43810;50.860;19.226;2023-04-26T11:01:45;98301.69;;;10.60;42.13
58018;BME280;43810;50.860;19.226;2023-04-26T11:04:11;98296.16;;;11.05;40.49
58018;BME280;43810;50.860;19.226;2023-04-26T11:06:54;98286.00;;;10.95;41.57
58018;BME280;43810;50.860;19.226;2023-04-26T11:09:47;98303.78;;;10.79;41.90
58018;BME280;43810;50.860;19.226;2023-04-26T11:12:14;98289.75;;;10.18;41.36
58018;BME280;43810;50.860;19.226;2023-04-26T11:14:41;98289.72;;;9.69;43.77
58018;BME280;43810;50.860;19.226;2023-04-26T11:17:08;98293.19;;;10.06;45.17
58018;BME280;43810;50.860;19.226;2023-04-26T11:19:35;98301.34;;;10.62;40.04
58018;BME280;43810;50.860;19.226;2023-04-26T11:22:02;98295.47;;;10.80;42.75
58018;BME280;43810;50.860;19.226;2023-04-26T11:24:31;98299.66;;;10.69;40.86
58018;BME280;43810;50.860;19.226;2023-04-26T11:26:58;98303.38;;;10.28;42.08
58018;BME280;43810;50.860;19.226;2023-04-26T11:29:24;98301.25;;;10.46;39.63
58018;BME280;43810;50.860;19.226;2023-04-26T11:31:55;98301.16;;;10.18;40.89
58018;BME280;43810;50.860;19.226;2023-04-26T11:34:41;98299.44;;;9.65;40.71
58018;BME280;43810;50.860;19.226;2023-04-26T11:37:08;98303.44;;;9.17;42.29
58018;BME280;43810;50.860;19.226;2023-04-26T11:39:35;98318.50;;;9.05;44.65
58018;BME280;43810;50.860;19.226;2023-04-26T11:42:05;98321.47;;;9.03;44.61
58018;BME280;43810;50.860;19.226;2023-04-26T11:44:34;98315.16;;;9.16;45.73
58018;BME280;43810;50.860;19.226;2023-04-26T11:47:00;98320.47;;;9.82;44.56
58018;BME280;43810;50.860;19.226;2023-04-26T11:49:29;98316.75;;;10.56;43.22
58018;BME280;43810;50.860;19.226;2023-04-26T11:51:56;98312.38;;;10.88;45.18
58018;BME280;43810;50.860;19.226;2023-04-26T11:54:29;98321.63;;;11.46;40.83
58018;BME280;43810;50.860;19.226;2023-04-26T11:56:57;98322.44;;;10.95;42.24
58018;BME280;43810;50.860;19.226;2023-04-26T11:59:26;98320.50;;;10.79;42.86
58018;BME280;43810;50.860;19.226;2023-04-26T12:01:57;98314.09;;;10.68;41.26
58018;BME280;43810;50.860;19.226;2023-04-26T12:04:29;98320.19;;;10.69;44.57
58018;BME280;43810;50.860;19.226;2023-04-26T12:06:56;98322.84;;;11.21;39.55
58018;BME280;43810;50.860;19.226;2023-04-26T12:09:26;98320.13;;;11.61;38.05
58018;BME280;43810;50.860;19.226;2023-04-26T12:11:58;98316.59;;;11.57;37.86
58018;BME280;43810;50.860;19.226;2023-04-26T12:14:32;98307.91;;;10.92;39.32
58018;BME280;43810;50.860;19.226;2023-04-26T12:17:01;98320.97;;;10.08;40.88
58018;BME280;43810;50.860;19.226;2023-04-26T12:19:31;98329.72;;;9.64;44.04
58018;BME280;43810;50.860;19.226;2023-04-26T12:21:58;98330.44;;;9.85;42.48
58018;BME280;43810;50.860;19.226;2023-04-26T12:24:25;98323.94;;;10.43;42.78
58018;BME280;43810;50.860;19.226;2023-04-26T12:26:52;98315.19;;;11.47;38.76
58018;BME280;43810;50.860;19.226;2023-04-26T12:29:17;98320.06;;;12.36;37.59
58018;BME280;43810;50.860;19.226;2023-04-26T12:31:43;98310.63;;;12.23;37.55
58018;BME280;43810;50.860;19.226;2023-04-26T12:34:09;98313.59;;;11.59;38.11
58018;BME280;43810;50.860;19.226;2023-04-26T12:36:35;98319.66;;;11.03;38.81
58018;BME280;43810;50.860;19.226;2023-04-26T12:39:01;98322.16;;;10.35;42.01
58018;BME280;43810;50.860;19.226;2023-04-26T12:41:29;98320.25;;;9.75;43.05
58018;BME280;43810;50.860;19.226;2023-04-26T12:43:56;98317.56;;;9.63;44.18
58018;BME280;43810;50.860;19.226;2023-04-26T12:46:22;98321.22;;;9.70;44.08
58018;BME280;43810;50.860;19.226;2023-04-26T12:48:47;98330.44;;;9.85;43.47
58018;BME280;43810;50.860;19.226;2023-04-26T12:51:13;98334.72;;;9.90;42.72
58018;BME280;43810;50.860;19.226;2023-04-26T12:53:39;98338.44;;;10.22;41.94
58018;BME280;43810;50.860;19.226;2023-04-26T12:56:05;98333.00;;;10.67;39.32
58018;BME280;43810;50.860;19.226;2023-04-26T12:58:31;98335.78;;;11.50;38.09
58018;BME280;43810;50.860;19.226;2023-04-26T13:00:57;98329.53;;;12.18;39.31
58018;BME280;43810;50.860;19.226;2023-04-26T13:03:22;98319.78;;;12.57;37.31
58018;BME280;43810;50.860;19.226;2023-04-26T13:05:48;98340.00;;;12.11;38.14
58018;BME280;43810;50.860;19.226;2023-04-26T13:08:14;98332.25;;;11.19;38.21
58018;BME280;43810;50.860;19.226;2023-04-26T13:10:40;98337.69;;;10.21;41.61
58018;BME280;43810;50.860;19.226;2023-04-26T13:13:06;98351.81;;;9.35;43.35